Meloi — 3FOD — position and weather

sailwx.info

Track history (hours):
 
Tides and Currents Weather Stations Pressure Air Temp Water Temp Dewpoint Dewpoint Depression Visibility Wind Speed Wind Dir Waves Ship Positions

Meloi

Last reported at 2017-Aug-15 05:38 UTC. Time now 2017-Aug-17 17:36 UTC.
Position N 25°04' W 016°15'.

Length 180 m; draft 9.5 m.

Type: Ship. MMSI: 351132000.

Date/timePositionNaut miles runAvg speedWind from/ knotsBaromVisibWave heightAir tempDewpointWater temp
2017-Aug-15 05:38N 25°04' W 016°15'1813.4
2017-Aug-15 04:16N 25°18' W 016°02'513.4
2017-Aug-15 03:53N 25°22' W 015°58'513.7
2017-Aug-15 03:30N 25°27' W 015°55'1213.4
2017-Aug-15 02:36N 25°36' W 015°47'713.8
2017-Aug-15 02:07N 25°42' W 015°43'313.5
2017-Aug-15 01:52N 25°44' W 015°40'1413.0
2017-Aug-15 00:47N 25°55' W 015°30'1213.2
2017-Aug-14 23:53N 26°05' W 015°22'513.2
2017-Aug-14 23:30N 26°09' W 015°19'713.2
2017-Aug-14 22:59N 26°14' W 015°14'713.3
2017-Aug-14 22:27N 26°20' W 015°09'1013.3
2017-Aug-14 21:43N 26°27' W 015°03'413.2
2017-Aug-14 21:24N 26°31' W 014°60'613.1
2017-Aug-14 20:56N 26°36' W 014°56'613.1
2017-Aug-14 20:30N 26°40' W 014°52'613.0
2017-Aug-14 20:00N 26°45' W 014°48'612.9
2017-Aug-14 19:30N 26°51' W 014°43'612.8
2017-Aug-14 19:00N 26°56' W 014°39'613.0
2017-Aug-14 18:30N 27°01' W 014°35'612.5
2017-Aug-14 18:00N 27°06' W 014°31'612.7
2017-Aug-14 17:30N 27°11' W 014°26'612.9
2017-Aug-14 17:00N 27°16' W 014°22'613.0
2017-Aug-14 16:30N 27°21' W 014°17'713.1
2017-Aug-14 16:00N 27°26' W 014°13'713.2
2017-Aug-14 15:30N 27°32' W 014°08'713.0
2017-Aug-14 15:00N 27°37' W 014°04'713.2
2017-Aug-14 14:30N 27°42' W 013°60'713.6
2017-Aug-14 14:00N 27°48' W 013°55'713.7
2017-Aug-14 13:30N 27°53' W 013°50'713.9
2017-Aug-14 13:00N 27°59' W 013°46'713.7
2017-Aug-14 12:30N 28°04' W 013°41'713.4
2017-Aug-14 12:00N 28°10' W 013°37'713.3
2017-Aug-14 11:30N 28°15' W 013°33'713.3
2017-Aug-14 11:00N 28°21' W 013°28'713.2
2017-Aug-14 10:30N 28°26' W 013°24'713.4
2017-Aug-14 10:00N 28°32' W 013°20'713.7
2017-Aug-14 09:30N 28°37' W 013°15'713.8
2017-Aug-14 09:00N 28°43' W 013°11'713.8
2017-Aug-14 08:29N 28°49' W 013°06'713.6
2017-Aug-14 08:00N 28°54' W 013°02'713.4
2017-Aug-14 07:30N 28°60' W 012°57'713.6
2017-Aug-14 07:00N 29°05' W 012°53'713.7
2017-Aug-14 06:30N 29°11' W 012°48'713.7
2017-Aug-14 05:58N 29°17' W 012°43'613.6
2017-Aug-14 05:30N 29°22' W 012°39'713.8
2017-Aug-14 04:59N 29°28' W 012°34'713.9
2017-Aug-14 04:28N 29°33' W 012°29'613.9
2017-Aug-14 04:00N 29°38' W 012°24'1513.8
2017-Aug-14 02:54N 29°50' W 012°13'3413.8
2017-Aug-14 00:26N 30°17' W 011°50'613.6
2017-Aug-14 00:00N 30°22' W 011°46'713.5
2017-Aug-13 23:30N 30°28' W 011°42'713.8
2017-Aug-13 23:00N 30°33' W 011°37'713.8
2017-Aug-13 22:30N 30°39' W 011°32'713.6
2017-Aug-13 22:00N 30°44' W 011°28'713.6
2017-Aug-13 21:30N 30°50' W 011°23'713.7
2017-Aug-13 21:00N 30°56' W 011°18'713.8
2017-Aug-13 20:30N 31°01' W 011°14'714.0
2017-Aug-13 20:00N 31°07' W 011°09'713.9
2017-Aug-13 19:30N 31°13' W 011°04'713.9
2017-Aug-13 19:00N 31°18' W 010°60'713.9
2017-Aug-13 18:30N 31°24' W 010°55'713.5
2017-Aug-13 17:57N 31°30' W 010°50'1813.5
2017-Aug-13 16:36N 31°44' W 010°36'113.5
2017-Aug-13 16:31N 31°45' W 010°36'1213.3
2017-Aug-13 15:36N 31°56' W 010°28'113.5
2017-Aug-13 15:30N 31°57' W 010°27'1113.4
2017-Aug-13 14:42N 32°05' W 010°19'1313.1
2017-Aug-13 13:41N 32°16' W 010°10'613.3
2017-Aug-13 13:13N 32°21' W 010°06'413.7
2017-Aug-13 12:54N 32°25' W 010°03'2213.7
2017-Aug-13 11:18N 32°40' W 009°44'413.6
2017-Aug-13 11:00N 32°43' W 009°41'19213.7
2017-Aug-12 20:55N 35°01' W 007°00'614.0
2017-Aug-12 20:30N 35°05' W 006°55'8313.6
2017-Aug-12 14:23N 35°58' W 005°36'614.1
2017-Aug-12 13:59N 35°59' W 005°29'613.4
2017-Aug-12 13:30N 36°02' W 005°22'713.4
2017-Aug-12 13:00N 36°03' W 005°14'  
2017-Aug-09 09:07N 36°09' W 004°38'214.9
2017-Aug-09 08:57N 36°09' W 004°41'614.1
2017-Aug-09 08:30N 36°08' W 004°49'1113.4
2017-Aug-09 07:41N 36°07' W 005°03'313.6
2017-Aug-09 07:28N 36°06' W 005°06'613.4
2017-Aug-09 07:00N 36°06' W 005°14'611.9
2017-Aug-09 06:30N 36°06' W 005°21'1 2.5
2017-Aug-09 05:59N 36°07' W 005°21'0 0.0
2017-Aug-09 05:26N 36°07' W 005°21'0 0.1
2017-Aug-09 04:59N 36°07' W 005°21'0 0.0
2017-Aug-09 04:29N 36°07' W 005°21'0 0.1
2017-Aug-09 03:56N 36°07' W 005°21'0 0.1
2017-Aug-09 03:29N 36°07' W 005°21'0 0.0
2017-Aug-09 01:35N 36°07' W 005°21'0 0.1
2017-Aug-09 00:50N 36°07' W 005°21'0 0.1
2017-Aug-09 00:26N 36°07' W 005°21'0 0.0
2017-Aug-08 23:59N 36°07' W 005°21'0 0.1
2017-Aug-08 23:29N 36°07' W 005°21'0 0.0
2017-Aug-08 22:59N 36°07' W 005°21'0 0.3
2017-Aug-08 22:26N 36°07' W 005°21'0 0.1
2017-Aug-08 21:59N 36°07' W 005°21'0 0.2
2017-Aug-08 21:29N 36°07' W 005°21'0 0.3
2017-Aug-08 20:59N 36°07' W 005°21'0 0.2
2017-Aug-08 20:26N 36°07' W 005°21'0 0.2
2017-Aug-08 19:20N 36°07' W 005°21'0 0.1
2017-Aug-08 18:56N 36°07' W 005°21'1 2.2
2017-Aug-08 18:30N 36°06' W 005°21'2 3.4
2017-Aug-08 18:00N 36°06' W 005°19'7 7.4
2017-Aug-08 17:00N 36°07' W 005°10'510.2
2017-Aug-08 16:30N 36°08' W 005°04'2 4.2
2017-Aug-08 16:00N 36°09' W 005°02'2 4.0
2017-Aug-08 15:30N 36°10' W 005°04'3 6.8
2017-Aug-08 15:00N 36°10' W 005°08'4 8.0
2017-Aug-08 14:30N 36°11' W 005°13'1 0.9
2017-Aug-08 13:57N 36°11' W 005°14'1 1.9
2017-Aug-08 13:30N 36°10' W 005°13'1 2.2
2017-Aug-08 13:00N 36°09' W 005°13'1 2.0
2017-Aug-08 12:30N 36°08' W 005°14'1 2.4
2017-Aug-08 12:00N 36°07' W 005°14'2 3.9
2017-Aug-08 11:30N 36°05' W 005°16'5 9.1
2017-Aug-08 11:00N 36°02' W 005°19'5 9.2
2017-Aug-08 10:30N 35°59' W 005°23'1413.4
2017-Aug-08 09:26N 35°54' W 005°40'512.1
2017-Aug-08 09:00N 35°53' W 005°46'4811.6
2017-Aug-08 04:53N 35°17' W 006°25'512.2
2017-Aug-08 04:30N 35°13' W 006°27'1012.5
2017-Aug-08 03:41N 35°04' W 006°33'212.4
2017-Aug-08 03:30N 35°02' W 006°35'612.3
2017-Aug-08 02:59N 34°57' W 006°39'612.5
2017-Aug-08 02:31N 34°52' W 006°43'612.2
2017-Aug-08 02:01N 34°47' W 006°47'612.3
2017-Aug-08 01:30N 34°41' W 006°51'912.6
2017-Aug-08 00:46N 34°34' W 006°59'412.7
2017-Aug-08 00:28N 34°32' W 007°02'511.7
2017-Aug-08 00:01N 34°27' W 007°05'611.5
2017-Aug-07 23:30N 34°21' W 007°06'713.0
2017-Aug-07 22:56N 34°15' W 007°11'812.6
2017-Aug-07 22:17N 34°08' W 007°16'2412.0
2017-Aug-07 20:18N 33°48' W 007°31'8 0.7
2017-Aug-07 07:35N 33°40' W 007°36'0 0.0
2017-Aug-07 05:14N 33°40' W 007°36'0 0.0
2017-Aug-06 13:44N 33°40' W 007°36'0 0.0
2017-Aug-06 07:14N 33°40' W 007°36'0 0.0
2017-Aug-06 06:53N 33°40' W 007°36'0 0.0
2017-Aug-06 06:26N 33°40' W 007°36'0 0.1
2017-Aug-06 05:56N 33°40' W 007°36'0 0.0
2017-Aug-06 05:29N 33°40' W 007°36'0 0.1
2017-Aug-06 04:59N 33°40' W 007°36'0 0.0
2017-Aug-06 04:29N 33°40' W 007°36'0 0.0
2017-Aug-06 03:59N 33°40' W 007°36'  
Track history (hours):
 
Tides and Currents Weather Stations Pressure Air Temp Water Temp Dewpoint Dewpoint Depression Visibility Wind Speed Wind Dir Waves Ship Positions

Meloi

Last reported at 2017-Aug-15 05:38 UTC. Time now 2017-Aug-17 17:36 UTC.
Position N 25°04' W 016°15'.

Length 180 m; draft 9.5 m.

Type: Ship. MMSI: 351132000.

Date/timePositionNaut miles runAvg speedWind from/ knotsBaromVisibWave heightAir tempDewpointWater temp
2017-Aug-15 05:38N 25°04' W 016°15'1813.4
2017-Aug-15 04:16N 25°18' W 016°02'513.4
2017-Aug-15 03:53N 25°22' W 015°58'513.7
2017-Aug-15 03:30N 25°27' W 015°55'1213.4
2017-Aug-15 02:36N 25°36' W 015°47'713.8
2017-Aug-15 02:07N 25°42' W 015°43'313.5
2017-Aug-15 01:52N 25°44' W 015°40'1413.0
2017-Aug-15 00:47N 25°55' W 015°30'1213.2
2017-Aug-14 23:53N 26°05' W 015°22'513.2
2017-Aug-14 23:30N 26°09' W 015°19'713.2
2017-Aug-14 22:59N 26°14' W 015°14'713.3
2017-Aug-14 22:27N 26°20' W 015°09'1013.3
2017-Aug-14 21:43N 26°27' W 015°03'413.2
2017-Aug-14 21:24N 26°31' W 014°60'613.1
2017-Aug-14 20:56N 26°36' W 014°56'613.1
2017-Aug-14 20:30N 26°40' W 014°52'613.0
2017-Aug-14 20:00N 26°45' W 014°48'612.9
2017-Aug-14 19:30N 26°51' W 014°43'612.8
2017-Aug-14 19:00N 26°56' W 014°39'613.0
2017-Aug-14 18:30N 27°01' W 014°35'612.5
2017-Aug-14 18:00N 27°06' W 014°31'612.7
2017-Aug-14 17:30N 27°11' W 014°26'612.9
2017-Aug-14 17:00N 27°16' W 014°22'613.0
2017-Aug-14 16:30N 27°21' W 014°17'713.1
2017-Aug-14 16:00N 27°26' W 014°13'713.2
2017-Aug-14 15:30N 27°32' W 014°08'713.0
2017-Aug-14 15:00N 27°37' W 014°04'713.2
2017-Aug-14 14:30N 27°42' W 013°60'713.6
2017-Aug-14 14:00N 27°48' W 013°55'713.7
2017-Aug-14 13:30N 27°53' W 013°50'713.9
2017-Aug-14 13:00N 27°59' W 013°46'713.7
2017-Aug-14 12:30N 28°04' W 013°41'713.4
2017-Aug-14 12:00N 28°10' W 013°37'713.3
2017-Aug-14 11:30N 28°15' W 013°33'713.3
2017-Aug-14 11:00N 28°21' W 013°28'713.2
2017-Aug-14 10:30N 28°26' W 013°24'713.4
2017-Aug-14 10:00N 28°32' W 013°20'713.7
2017-Aug-14 09:30N 28°37' W 013°15'713.8
2017-Aug-14 09:00N 28°43' W 013°11'713.8
2017-Aug-14 08:29N 28°49' W 013°06'713.6
2017-Aug-14 08:00N 28°54' W 013°02'713.4
2017-Aug-14 07:30N 28°60' W 012°57'713.6
2017-Aug-14 07:00N 29°05' W 012°53'713.7
2017-Aug-14 06:30N 29°11' W 012°48'713.7
2017-Aug-14 05:58N 29°17' W 012°43'613.6
2017-Aug-14 05:30N 29°22' W 012°39'713.8
2017-Aug-14 04:59N 29°28' W 012°34'713.9
2017-Aug-14 04:28N 29°33' W 012°29'613.9
2017-Aug-14 04:00N 29°38' W 012°24'1513.8
2017-Aug-14 02:54N 29°50' W 012°13'3413.8
2017-Aug-14 00:26N 30°17' W 011°50'613.6
2017-Aug-14 00:00N 30°22' W 011°46'713.5
2017-Aug-13 23:30N 30°28' W 011°42'713.8
2017-Aug-13 23:00N 30°33' W 011°37'713.8
2017-Aug-13 22:30N 30°39' W 011°32'713.6
2017-Aug-13 22:00N 30°44' W 011°28'713.6
2017-Aug-13 21:30N 30°50' W 011°23'713.7
2017-Aug-13 21:00N 30°56' W 011°18'713.8
2017-Aug-13 20:30N 31°01' W 011°14'714.0
2017-Aug-13 20:00N 31°07' W 011°09'713.9
2017-Aug-13 19:30N 31°13' W 011°04'713.9
2017-Aug-13 19:00N 31°18' W 010°60'713.9
2017-Aug-13 18:30N 31°24' W 010°55'713.5
2017-Aug-13 17:57N 31°30' W 010°50'1813.5
2017-Aug-13 16:36N 31°44' W 010°36'113.5
2017-Aug-13 16:31N 31°45' W 010°36'1213.3
2017-Aug-13 15:36N 31°56' W 010°28'113.5
2017-Aug-13 15:30N 31°57' W 010°27'1113.4
2017-Aug-13 14:42N 32°05' W 010°19'1313.1
2017-Aug-13 13:41N 32°16' W 010°10'613.3
2017-Aug-13 13:13N 32°21' W 010°06'413.7
2017-Aug-13 12:54N 32°25' W 010°03'2213.7
2017-Aug-13 11:18N 32°40' W 009°44'413.6
2017-Aug-13 11:00N 32°43' W 009°41'19213.7
2017-Aug-12 20:55N 35°01' W 007°00'614.0
2017-Aug-12 20:30N 35°05' W 006°55'8313.6
2017-Aug-12 14:23N 35°58' W 005°36'614.1
2017-Aug-12 13:59N 35°59' W 005°29'613.4
2017-Aug-12 13:30N 36°02' W 005°22'713.4
2017-Aug-12 13:00N 36°03' W 005°14'  
2017-Aug-09 09:07N 36°09' W 004°38'214.9
2017-Aug-09 08:57N 36°09' W 004°41'614.1
2017-Aug-09 08:30N 36°08' W 004°49'1113.4
2017-Aug-09 07:41N 36°07' W 005°03'313.6
2017-Aug-09 07:28N 36°06' W 005°06'613.4
2017-Aug-09 07:00N 36°06' W 005°14'611.9
2017-Aug-09 06:30N 36°06' W 005°21'1 2.5
2017-Aug-09 05:59N 36°07' W 005°21'0 0.0
2017-Aug-09 05:26N 36°07' W 005°21'0 0.1
2017-Aug-09 04:59N 36°07' W 005°21'0 0.0
2017-Aug-09 04:29N 36°07' W 005°21'0 0.1
2017-Aug-09 03:56N 36°07' W 005°21'0 0.1
2017-Aug-09 03:29N 36°07' W 005°21'0 0.0
2017-Aug-09 01:35N 36°07' W 005°21'0 0.1
2017-Aug-09 00:50N 36°07' W 005°21'0 0.1
2017-Aug-09 00:26N 36°07' W 005°21'0 0.0
2017-Aug-08 23:59N 36°07' W 005°21'0 0.1
2017-Aug-08 23:29N 36°07' W 005°21'0 0.0
2017-Aug-08 22:59N 36°07' W 005°21'0 0.3
2017-Aug-08 22:26N 36°07' W 005°21'0 0.1
2017-Aug-08 21:59N 36°07' W 005°21'0 0.2
2017-Aug-08 21:29N 36°07' W 005°21'0 0.3
2017-Aug-08 20:59N 36°07' W 005°21'0 0.2
2017-Aug-08 20:26N 36°07' W 005°21'0 0.2
2017-Aug-08 19:20N 36°07' W 005°21'0 0.1
2017-Aug-08 18:56N 36°07' W 005°21'1 2.2
2017-Aug-08 18:30N 36°06' W 005°21'2 3.4
2017-Aug-08 18:00N 36°06' W 005°19'7 7.4
2017-Aug-08 17:00N 36°07' W 005°10'510.2
2017-Aug-08 16:30N 36°08' W 005°04'2 4.2
2017-Aug-08 16:00N 36°09' W 005°02'2 4.0
2017-Aug-08 15:30N 36°10' W 005°04'3 6.8
2017-Aug-08 15:00N 36°10' W 005°08'4 8.0
2017-Aug-08 14:30N 36°11' W 005°13'1 0.9
2017-Aug-08 13:57N 36°11' W 005°14'1 1.9
2017-Aug-08 13:30N 36°10' W 005°13'1 2.2
2017-Aug-08 13:00N 36°09' W 005°13'1 2.0
2017-Aug-08 12:30N 36°08' W 005°14'1 2.4
2017-Aug-08 12:00N 36°07' W 005°14'2 3.9
2017-Aug-08 11:30N 36°05' W 005°16'5 9.1
2017-Aug-08 11:00N 36°02' W 005°19'5 9.2
2017-Aug-08 10:30N 35°59' W 005°23'1413.4
2017-Aug-08 09:26N 35°54' W 005°40'512.1
2017-Aug-08 09:00N 35°53' W 005°46'4811.6
2017-Aug-08 04:53N 35°17' W 006°25'512.2
2017-Aug-08 04:30N 35°13' W 006°27'1012.5
2017-Aug-08 03:41N 35°04' W 006°33'212.4
2017-Aug-08 03:30N 35°02' W 006°35'612.3
2017-Aug-08 02:59N 34°57' W 006°39'612.5
2017-Aug-08 02:31N 34°52' W 006°43'612.2
2017-Aug-08 02:01N 34°47' W 006°47'612.3
2017-Aug-08 01:30N 34°41' W 006°51'912.6
2017-Aug-08 00:46N 34°34' W 006°59'412.7
2017-Aug-08 00:28N 34°32' W 007°02'511.7
2017-Aug-08 00:01N 34°27' W 007°05'611.5
2017-Aug-07 23:30N 34°21' W 007°06'713.0
2017-Aug-07 22:56N 34°15' W 007°11'812.6
2017-Aug-07 22:17N 34°08' W 007°16'2412.0
2017-Aug-07 20:18N 33°48' W 007°31'8 0.7
2017-Aug-07 07:35N 33°40' W 007°36'0 0.0
2017-Aug-07 05:14N 33°40' W 007°36'0 0.0
2017-Aug-06 13:44N 33°40' W 007°36'0 0.0
2017-Aug-06 07:14N 33°40' W 007°36'0 0.0
2017-Aug-06 06:53N 33°40' W 007°36'0 0.0
2017-Aug-06 06:26N 33°40' W 007°36'0 0.1
2017-Aug-06 05:56N 33°40' W 007°36'0 0.0
2017-Aug-06 05:29N 33°40' W 007°36'0 0.1
2017-Aug-06 04:59N 33°40' W 007°36'0 0.0
2017-Aug-06 04:29N 33°40' W 007°36'0 0.0
2017-Aug-06 03:59N 33°40' W 007°36'  

Dump ship's entire track history